Time;durP1;ratioP1;P1;durP2;ratioP2;P2;SDS_P1;SDS_P2;PMS_P1;PMS_P2;Temp;Humidity;BMP_temperature;BMP_pressure;BME280_temperature;BME280_humidity;BME280_pressure;Samples;Min_cycle;Max_cycle;Signal;HPM_P1;HPM_P2
2020/12/03 00:01:47;;;;;;;79.13;60.27;;;0.00;99.90;;;;;;4988580;28;20458;-71
2020/12/03 00:04:13;;;;;;;78.80;55.17;;;-0.10;99.90;;;;;;4987570;28;20464;-69
2020/12/03 00:06:44;;;;;;;82.03;57.33;;;0.00;99.90;;;;;;4976076;28;20483;-72
2020/12/03 00:09:16;;;;;;;76.00;56.23;;;-0.10;99.90;;;;;;4976614;28;20456;-72
2020/12/03 00:11:46;;;;;;;74.27;58.27;;;-0.10;99.90;;;;;;4976594;28;20459;-72
2020/12/03 00:14:12;;;;;;;85.93;62.23;;;0.00;99.90;;;;;;4994072;28;20461;-73
2020/12/03 00:16:41;;;;;;;83.53;61.00;;;-0.10;99.90;;;;;;4975597;28;20470;-74
2020/12/03 00:19:09;;;;;;;86.27;56.93;;;-0.20;99.90;;;;;;4990939;28;20833;-73
2020/12/03 00:21:42;;;;;;;76.93;55.17;;;-0.10;99.90;;;;;;4978695;28;20450;-74
2020/12/03 00:24:10;;;;;;;81.03;55.30;;;-0.10;99.90;;;;;;4994515;28;20462;-73
2020/12/03 00:26:37;;;;;;;79.50;55.13;;;-0.10;99.90;;;;;;4989070;28;20567;-74
2020/12/03 00:29:04;;;;;;;83.90;61.03;;;0.00;99.90;;;;;;4975944;28;20451;-74
2020/12/03 00:31:30;;;;;;;79.50;57.70;;;-0.10;99.90;;;;;;4979341;28;20942;-72
2020/12/03 00:33:58;;;;;;;78.83;54.67;;;0.00;99.90;;;;;;4979509;28;20450;-71
2020/12/03 00:36:25;;;;;;;70.80;54.70;;;0.00;99.90;;;;;;4994349;28;20471;-71
2020/12/03 00:38:51;;;;;;;81.10;57.47;;;0.00;99.90;;;;;;4994053;28;20860;-72
2020/12/03 00:41:20;;;;;;;82.63;58.43;;;0.00;99.90;;;;;;4980117;28;20460;-71
2020/12/03 00:43:47;;;;;;;78.90;56.40;;;0.00;99.90;;;;;;4976159;28;20455;-72
2020/12/03 00:46:13;;;;;;;77.33;57.77;;;0.10;99.90;;;;;;4989150;28;20482;-72
2020/12/03 00:48:39;;;;;;;83.30;64.00;;;0.00;99.90;;;;;;4989600;28;20451;-72
2020/12/03 00:51:11;;;;;;;82.20;54.60;;;0.00;99.90;;;;;;4995035;28;20454;-72
2020/12/03 00:53:38;;;;;;;80.90;64.03;;;0.00;99.90;;;;;;4966606;28;20526;-71
2020/12/03 00:56:04;;;;;;;83.17;64.40;;;-0.10;99.90;;;;;;4974580;28;21209;-72
2020/12/03 00:58:30;;;;;;;80.63;58.73;;;-0.10;99.90;;;;;;4983525;28;20452;-72
2020/12/03 01:00:57;;;;;;;86.00;59.13;;;-0.10;99.90;;;;;;4974911;28;20451;-72
2020/12/03 01:03:23;;;;;;;79.27;56.80;;;-0.10;99.90;;;;;;4981887;28;20454;-72
2020/12/03 01:05:50;;;;;;;89.20;60.23;;;0.00;99.90;;;;;;4993458;28;20475;-71
2020/12/03 01:08:17;;;;;;;89.43;61.67;;;-0.10;99.90;;;;;;4994081;28;20443;-72
2020/12/03 01:10:43;;;;;;;82.33;60.20;;;-0.10;99.90;;;;;;4986681;28;20460;-71
2020/12/03 01:13:10;;;;;;;84.50;63.67;;;-0.10;99.90;;;;;;4986649;28;20455;-71
2020/12/03 01:15:36;;;;;;;79.70;57.33;;;-0.10;99.90;;;;;;4980807;28;20492;-72
2020/12/03 01:18:03;;;;;;;77.87;56.67;;;0.00;99.90;;;;;;4995020;28;20952;-72
2020/12/03 01:20:30;;;;;;;78.97;55.47;;;0.00;99.90;;;;;;4983807;28;20455;-73
2020/12/03 01:22:57;;;;;;;72.80;57.80;;;0.10;99.90;;;;;;4975016;28;20454;-73
2020/12/03 01:25:25;;;;;;;81.27;58.13;;;0.20;99.90;;;;;;4989427;28;20471;-72
2020/12/03 01:27:52;;;;;;;79.60;56.23;;;0.10;99.90;;;;;;4974365;28;20491;-72
2020/12/03 01:30:20;;;;;;;75.03;56.60;;;0.20;99.90;;;;;;4988992;28;20462;-72
2020/12/03 01:32:46;;;;;;;76.10;57.43;;;0.10;99.90;;;;;;4982948;28;20852;-72
2020/12/03 01:35:15;;;;;;;84.43;57.20;;;0.10;99.90;;;;;;4978496;28;20483;-73
2020/12/03 01:37:41;;;;;;;70.90;52.10;;;0.30;99.90;;;;;;4988899;28;20823;-72
2020/12/03 01:40:11;;;;;;;78.10;58.27;;;0.30;99.90;;;;;;4985645;28;20462;-72
2020/12/03 01:42:41;;;;;;;73.90;52.90;;;0.20;99.90;;;;;;4993074;28;20459;-71
2020/12/03 01:45:40;;;;;;;72.60;53.50;;;0.30;99.90;;;;;;4989015;28;20475;-71
2020/12/03 01:48:10;;;;;;;71.27;54.10;;;0.30;99.90;;;;;;4986458;28;20487;-72
2020/12/03 01:50:39;;;;;;;75.03;53.93;;;0.20;99.90;;;;;;4993013;28;20461;-71
2020/12/03 01:53:05;;;;;;;71.33;52.60;;;0.30;99.90;;;;;;4975979;28;20462;-71
2020/12/03 01:55:32;;;;;;;69.23;52.47;;;0.30;99.90;;;;;;4988496;28;20481;-71
2020/12/03 01:58:02;;;;;;;69.70;51.37;;;0.40;99.90;;;;;;4973999;28;20455;-71
2020/12/03 02:00:29;;;;;;;70.70;51.40;;;0.40;99.90;;;;;;4973994;28;20472;-73
2020/12/03 02:02:55;;;;;;;67.60;49.43;;;0.40;99.90;;;;;;4973779;28;20455;-71
2020/12/03 02:05:24;;;;;;;66.87;49.70;;;0.30;99.90;;;;;;4976712;28;20849;-71
2020/12/03 02:07:51;;;;;;;66.90;52.03;;;0.40;99.90;;;;;;4981453;28;20569;-71
2020/12/03 02:10:20;;;;;;;67.10;48.60;;;0.40;99.90;;;;;;4988915;28;20459;-73
2020/12/03 02:12:46;;;;;;;70.80;51.73;;;0.40;99.90;;;;;;4977961;28;20447;-71
2020/12/03 02:15:15;;;;;;;67.53;49.70;;;0.40;99.90;;;;;;4992153;28;20479;-71
2020/12/03 02:17:41;;;;;;;66.20;48.77;;;0.40;99.90;;;;;;4999764;28;20446;-71
2020/12/03 02:20:11;;;;;;;64.47;50.23;;;0.30;99.90;;;;;;5000404;28;20455;-74
2020/12/03 02:22:37;;;;;;;67.53;51.63;;;0.30;99.90;;;;;;4982696;28;20454;-74
2020/12/03 02:25:06;;;;;;;71.43;51.57;;;0.30;99.90;;;;;;4983430;28;20472;-72
2020/12/03 02:27:32;;;;;;;70.90;50.23;;;0.30;99.90;;;;;;4978825;28;20482;-72
2020/12/03 02:29:59;;;;;;;69.97;51.07;;;0.30;99.90;;;;;;4991990;28;20451;-71
2020/12/03 02:32:25;;;;;;;68.37;55.10;;;0.40;99.90;;;;;;4993377;28;20446;-72
2020/12/03 02:34:51;;;;;;;63.77;48.93;;;0.30;99.90;;;;;;4992115;28;20498;-72
2020/12/03 02:37:18;;;;;;;68.43;50.90;;;0.40;99.90;;;;;;4991733;28;20451;-72
2020/12/03 02:39:45;;;;;;;67.37;51.50;;;0.40;99.90;;;;;;4991333;28;20442;-73
2020/12/03 02:42:13;;;;;;;71.73;53.43;;;0.30;99.90;;;;;;4991227;28;21045;-71
2020/12/03 02:44:41;;;;;;;65.17;51.67;;;0.30;99.90;;;;;;4977023;28;20526;-72
2020/12/03 02:47:08;;;;;;;72.90;51.30;;;0.30;99.90;;;;;;4955263;29;20503;-71
2020/12/03 02:49:40;;;;;;;72.93;54.03;;;0.30;99.90;;;;;;4974932;28;20458;-71
2020/12/03 02:52:07;;;;;;;67.37;52.93;;;0.40;99.90;;;;;;4975316;28;20487;-71
2020/12/03 02:54:35;;;;;;;69.53;51.07;;;0.40;99.90;;;;;;4974265;28;20479;-71
2020/12/03 02:57:01;;;;;;;66.10;50.63;;;0.40;99.90;;;;;;4982811;28;20457;-72
2020/12/03 02:59:27;;;;;;;71.50;55.10;;;0.40;99.90;;;;;;4986603;28;20455;-71
2020/12/03 03:01:53;;;;;;;65.57;49.57;;;0.30;99.90;;;;;;4973361;28;20455;-71
2020/12/03 03:04:20;;;;;;;65.10;50.90;;;0.30;99.90;;;;;;4972636;28;20976;-71
2020/12/03 03:06:46;;;;;;;67.47;49.83;;;0.40;99.90;;;;;;4983295;28;20482;-71
2020/12/03 03:09:12;;;;;;;66.67;50.33;;;0.30;99.90;;;;;;4991541;28;20467;-71
2020/12/03 03:11:40;;;;;;;70.90;50.63;;;0.40;99.90;;;;;;4980149;28;20455;-72
2020/12/03 03:14:06;;;;;;;64.73;52.93;;;0.40;99.90;;;;;;4972736;28;20451;-71
2020/12/03 03:16:32;;;;;;;66.20;50.40;;;0.30;99.90;;;;;;4990611;28;20489;-71
2020/12/03 03:19:00;;;;;;;62.10;48.93;;;0.40;99.90;;;;;;4988722;28;20461;-73
2020/12/03 03:21:26;;;;;;;63.90;47.17;;;0.30;99.90;;;;;;4972906;28;20456;-72
2020/12/03 03:23:52;;;;;;;68.57;52.27;;;0.40;99.90;;;;;;4972556;28;20974;-72
2020/12/03 03:26:19;;;;;;;66.23;49.30;;;0.40;99.90;;;;;;4972630;28;20484;-72
2020/12/03 03:28:46;;;;;;;64.10;50.17;;;0.50;99.90;;;;;;4973402;28;20455;-73
2020/12/03 03:31:12;;;;;;;64.80;53.60;;;0.40;99.90;;;;;;4991204;28;20455;-72
2020/12/03 03:33:39;;;;;;;62.57;48.70;;;0.30;99.90;;;;;;4991652;28;20819;-72
2020/12/03 03:36:05;;;;;;;62.90;49.90;;;0.40;99.90;;;;;;4981317;28;20475;-73
2020/12/03 03:38:31;;;;;;;66.70;49.10;;;0.40;99.90;;;;;;4980852;28;20457;-73
2020/12/03 03:40:58;;;;;;;61.03;46.27;;;0.40;99.90;;;;;;4976699;28;20459;-72
2020/12/03 03:43:24;;;;;;;65.23;52.37;;;0.60;99.90;;;;;;4982930;28;20457;-72
2020/12/03 03:45:51;;;;;;;60.33;46.60;;;0.30;99.90;;;;;;4972035;28;20476;-72
2020/12/03 03:48:18;;;;;;;61.83;50.00;;;0.40;99.90;;;;;;4973298;28;20509;-72
2020/12/03 03:50:44;;;;;;;65.73;48.53;;;0.40;99.90;;;;;;4987058;28;20905;-71
2020/12/03 03:53:10;;;;;;;66.90;51.37;;;0.40;99.90;;;;;;4992320;28;20464;-71
2020/12/03 03:55:37;;;;;;;67.77;55.13;;;0.40;99.90;;;;;;4976075;28;20466;-71
2020/12/03 03:58:07;;;;;;;67.57;52.03;;;0.30;99.90;;;;;;4976244;28;21010;-71
2020/12/03 04:00:34;;;;;;;67.50;50.73;;;0.30;99.90;;;;;;4977308;28;20455;-71
2020/12/03 04:03:01;;;;;;;63.20;48.23;;;0.30;99.90;;;;;;4988625;28;20829;-71
2020/12/03 04:05:28;;;;;;;68.17;57.60;;;0.30;99.90;;;;;;4975730;28;20471;-71
2020/12/03 04:07:54;;;;;;;67.87;58.00;;;0.20;99.90;;;;;;4987292;28;20497;-72
2020/12/03 04:10:20;;;;;;;66.43;58.13;;;0.10;99.90;;;;;;4995698;28;20473;-72
2020/12/03 04:12:46;;;;;;;66.90;59.53;;;0.10;99.90;;;;;;4984526;28;20470;-74
2020/12/03 04:15:13;;;;;;;70.67;60.97;;;0.10;99.90;;;;;;4985862;28;20490;-73
2020/12/03 04:17:39;;;;;;;68.20;59.00;;;0.10;99.90;;;;;;4993538;28;20446;-73
2020/12/03 04:20:07;;;;;;;67.17;56.80;;;0.10;99.90;;;;;;5060115;22;20495;-64
2020/12/03 04:22:34;;;;;;;68.57;59.87;;;0.10;99.90;;;;;;5045181;28;20466;-64
2020/12/03 04:25:00;;;;;;;63.63;56.60;;;0.00;99.90;;;;;;5053849;28;20444;-64
2020/12/03 04:27:26;;;;;;;66.53;55.73;;;0.00;99.90;;;;;;5052867;28;20472;-64
2020/12/03 04:29:53;;;;;;;66.70;58.50;;;0.10;99.90;;;;;;5049293;28;20482;-63
2020/12/03 04:32:19;;;;;;;67.97;59.73;;;0.00;99.90;;;;;;5058729;28;20450;-63
2020/12/03 04:34:45;;;;;;;66.77;59.57;;;-0.10;99.90;;;;;;5073132;28;20458;-64
2020/12/03 04:37:13;;;;;;;69.57;62.17;;;0.00;99.90;;;;;;5072168;28;20447;-64
2020/12/03 04:39:39;;;;;;;65.73;57.90;;;0.00;99.90;;;;;;5054948;28;20476;-63
2020/12/03 04:42:19;;;;;;;66.70;59.20;;;0.00;99.90;;;;;;5055335;28;20466;-64
2020/12/03 04:44:46;;;;;;;71.67;60.30;;;0.00;99.90;;;;;;5073458;28;20443;-64
2020/12/03 04:47:34;;;;;;;68.50;55.77;;;0.00;99.90;;;;;;5061360;28;20480;-64
2020/12/03 04:50:10;;;;;;;68.40;58.40;;;0.00;99.90;;;;;;5073735;28;20467;-64
2020/12/03 04:53:11;;;;;;;68.00;57.23;;;0.10;99.90;;;;;;5057768;28;20797;-63
2020/12/03 04:55:53;;;;;;;66.80;58.00;;;0.10;99.90;;;;;;5072272;28;20447;-63
2020/12/03 04:58:32;;;;;;;66.93;56.80;;;0.10;99.90;;;;;;5073494;28;20659;-63
2020/12/03 05:01:04;;;;;;;68.30;59.77;;;0.00;99.90;;;;;;5056626;28;20509;-64
2020/12/03 05:03:57;;;;;;;69.90;60.50;;;0.10;99.90;;;;;;5058832;28;20934;-63
2020/12/03 05:06:39;;;;;;;70.00;62.60;;;0.00;99.90;;;;;;5053429;28;20440;-62
2020/12/03 05:09:14;;;;;;;69.47;53.90;;;0.00;99.90;;;;;;5064160;28;20471;-62
2020/12/03 05:11:43;;;;;;;67.17;57.80;;;0.10;99.90;;;;;;5053179;28;20457;-63
2020/12/03 05:14:16;;;;;;;64.23;57.20;;;0.00;99.90;;;;;;5070658;28;20446;-64
2020/12/03 05:16:52;;;;;;;64.27;53.90;;;0.10;99.90;;;;;;5073060;28;20439;-64
2020/12/03 05:19:32;;;;;;;65.97;55.20;;;0.10;99.90;;;;;;5056502;28;20562;-64
2020/12/03 05:22:08;;;;;;;64.43;55.83;;;0.10;99.90;;;;;;5053094;28;20458;-64
2020/12/03 05:24:35;;;;;;;66.40;57.33;;;0.10;99.90;;;;;;5052511;28;20444;-64
2020/12/03 05:27:01;;;;;;;65.07;53.77;;;0.10;99.90;;;;;;5063634;28;20996;-63
2020/12/03 05:29:27;;;;;;;65.80;56.80;;;0.10;99.90;;;;;;5072519;28;20479;-64
2020/12/03 05:31:55;;;;;;;64.10;54.30;;;0.10;99.90;;;;;;5062925;28;20460;-64
2020/12/03 05:34:23;;;;;;;59.90;53.37;;;0.10;99.90;;;;;;5057653;28;20946;-64
2020/12/03 05:37:00;;;;;;;64.80;56.73;;;0.10;99.90;;;;;;5072617;28;20481;-64
2020/12/03 05:39:29;;;;;;;63.63;54.13;;;0.10;99.90;;;;;;5069415;28;20851;-64
2020/12/03 05:42:00;;;;;;;65.13;55.17;;;0.10;99.90;;;;;;5066070;28;20977;-64
2020/12/03 05:44:39;;;;;;;63.77;54.70;;;0.10;99.90;;;;;;5070627;28;20455;-64
2020/12/03 05:47:20;;;;;;;60.47;53.83;;;0.10;99.90;;;;;;5072549;28;20479;-64
2020/12/03 05:49:48;;;;;;;62.77;55.97;;;0.10;99.90;;;;;;5052012;28;20835;-64
2020/12/03 05:52:16;;;;;;;61.23;51.43;;;0.20;99.90;;;;;;5059905;28;20602;-64
2020/12/03 05:54:57;;;;;;;63.30;54.57;;;0.20;99.90;;;;;;5052336;28;20466;-64
2020/12/03 05:57:27;;;;;;;63.33;51.40;;;0.20;99.90;;;;;;5053496;28;20440;-64
2020/12/03 05:59:53;;;;;;;61.80;53.90;;;0.10;99.90;;;;;;5065233;28;20997;-64
2020/12/03 06:02:33;;;;;;;64.80;53.83;;;0.10;99.90;;;;;;5062864;28;20462;-64
2020/12/03 06:05:15;;;;;;;64.50;55.07;;;0.20;99.90;;;;;;5052365;28;20451;-64
2020/12/03 06:08:01;;;;;;;65.17;54.97;;;0.10;99.90;;;;;;5062713;28;20928;-64
2020/12/03 06:10:54;;;;;;;61.83;52.43;;;0.20;99.90;;;;;;5067813;28;20478;-64
2020/12/03 06:13:42;;;;;;;62.73;55.00;;;0.10;99.90;;;;;;5060661;28;20462;-64
2020/12/03 06:16:21;;;;;;;60.23;52.50;;;0.20;99.90;;;;;;5052206;28;20428;-64
2020/12/03 06:19:13;;;;;;;65.50;56.30;;;0.20;99.90;;;;;;5061771;28;20481;-64
2020/12/03 06:21:58;;;;;;;65.47;53.67;;;0.20;99.90;;;;;;5052327;28;20440;-64
2020/12/03 06:24:42;;;;;;;65.90;55.13;;;0.20;99.90;;;;;;5065740;28;20474;-64
2020/12/03 06:27:36;;;;;;;64.10;54.80;;;0.20;99.90;;;;;;5064068;28;20594;-64
2020/12/03 06:30:18;;;;;;;62.47;53.93;;;0.20;99.90;;;;;;5060699;28;20468;-64
2020/12/03 06:33:16;;;;;;;62.73;55.90;;;0.20;99.90;;;;;;5055438;28;20455;-64
2020/12/03 06:35:46;;;;;;;63.27;54.63;;;0.20;99.90;;;;;;5068504;28;20442;-64
2020/12/03 06:38:19;;;;;;;64.93;55.63;;;0.20;99.90;;;;;;5070584;28;20454;-64
2020/12/03 06:40:55;;;;;;;65.87;56.03;;;0.20;99.90;;;;;;5069159;28;20449;-63
2020/12/03 06:43:26;;;;;;;70.00;56.03;;;;;;;;;;5060280;28;20447;-64
2020/12/03 06:46:05;;;;;;;21.80;17.57;;;0.20;99.90;;;;;;5051329;28;20443;-65
2020/12/03 06:48:57;;;;;;;22.40;16.67;;;3.60;99.90;;;;;;5051739;28;20491;-65
2020/12/03 06:51:53;;;;;;;28.53;23.10;;;10.90;99.90;;;;;;5060842;28;20475;-65
2020/12/03 06:54:52;;;;;;;31.07;27.87;;;13.00;99.90;;;;;;5051819;28;20447;-64
2020/12/03 06:57:48;;;;;;;17.80;15.87;;;14.10;99.90;;;;;;5053754;28;20454;-65
2020/12/03 07:00:42;;;;;;;18.13;16.23;;;17.00;99.90;;;;;;5066770;28;20472;-65
2020/12/03 07:03:32;;;;;;;21.20;16.87;;;18.20;99.90;;;;;;5051903;28;20462;-65
2020/12/03 07:06:46;;;;;;;18.87;17.03;;;18.60;99.90;;;;;;5055663;28;20464;-65
2020/12/03 07:09:40;;;;;;;17.93;16.13;;;19.40;99.90;;;;;;5063669;28;21007;-65
2020/12/03 07:12:32;;;;;;;18.63;16.70;;;19.20;99.90;;;;;;5053702;28;20458;-64
2020/12/03 07:15:33;;;;;;;20.40;18.47;;;19.60;97.90;;;;;;5048244;28;20464;-65
2020/12/03 07:18:44;;;;;;;22.40;20.37;;;19.70;96.30;;;;;;5056220;28;20443;-64
2020/12/03 07:21:40;;;;;;;18.90;16.90;;;19.60;95.60;;;;;;5069104;28;20454;-64
2020/12/03 07:24:08;;;;;;;19.70;17.80;;;20.10;93.70;;;;;;5053082;28;20451;-65
2020/12/03 07:26:51;;;;;;;19.40;17.40;;;20.30;92.90;;;;;;5057354;28;20461;-65
2020/12/03 07:29:22;;;;;;;21.67;19.50;;;20.30;92.00;;;;;;5065289;28;20469;-64
2020/12/03 07:31:51;;;;;;;20.80;18.70;;;20.00;91.50;;;;;;5071681;28;20452;-64
2020/12/03 07:34:25;;;;;;;19.97;17.97;;;19.80;91.10;;;;;;5071274;28;20442;-65
2020/12/03 07:36:58;;;;;;;46.93;42.83;;;19.90;91.00;;;;;;5055370;28;20945;-65
2020/12/03 07:39:30;;;;;;;57.93;52.40;;;5.30;82.80;;;;;;5055362;28;20517;-65
2020/12/03 07:41:59;;;;;;;59.97;53.90;;;2.00;99.90;;;;;;5055447;28;20459;-65
2020/12/03 07:44:38;;;;;;;59.80;53.30;;;1.20;99.90;;;;;;5054441;28;20830;-66
2020/12/03 07:47:20;;;;;;;60.87;53.70;;;0.80;99.90;;;;;;5055105;28;20505;-65
2020/12/03 07:49:47;;;;;;;57.43;51.07;;;0.70;99.90;;;;;;5054576;28;20467;-66
2020/12/03 07:52:27;;;;;;;61.33;54.23;;;0.60;99.90;;;;;;5054735;28;20522;-66
2020/12/03 07:54:54;;;;;;;59.03;52.67;;;0.50;99.90;;;;;;5054547;28;20452;-66
2020/12/03 07:57:26;;;;;;;62.00;53.97;;;0.40;99.90;;;;;;5054324;28;20459;-67
2020/12/03 07:59:52;;;;;;;62.37;54.33;;;0.40;99.90;;;;;;5054589;28;20471;-64
2020/12/03 08:02:50;;;;;;;63.20;54.80;;;0.40;99.90;;;;;;5053587;28;20851;-65
2020/12/03 08:05:49;;;;;;;66.37;56.77;;;0.40;99.90;;;;;;5052652;28;20946;-67
2020/12/03 08:08:36;;;;;;;64.53;55.87;;;0.40;99.90;;;;;;5034538;28;20491;-67
2020/12/03 08:11:03;;;;;;;70.43;56.33;;;0.40;99.90;;;;;;5061524;28;20964;-66
2020/12/03 08:13:31;;;;;;;63.73;56.10;;;0.40;99.90;;;;;;5058650;28;20473;-64
2020/12/03 08:16:00;;;;;;;64.67;56.67;;;0.40;99.90;;;;;;5056598;28;20448;-67
2020/12/03 08:18:43;;;;;;;62.20;54.23;;;0.30;99.90;;;;;;5058959;28;20525;-66
2020/12/03 08:21:10;;;;;;;65.40;55.50;;;0.40;99.90;;;;;;5066690;28;20538;-64
2020/12/03 08:23:38;;;;;;;62.80;52.63;;;0.40;99.90;;;;;;5068413;28;20461;-68
2020/12/03 08:26:04;;;;;;;63.50;53.30;;;0.40;99.90;;;;;;5065310;28;20447;-67
2020/12/03 08:28:33;;;;;;;60.57;50.83;;;0.40;99.90;;;;;;5060933;28;21031;-68
2020/12/03 08:31:00;;;;;;;63.23;53.03;;;0.40;99.90;;;;;;5069832;28;20451;-68
2020/12/03 08:33:29;;;;;;;61.87;53.10;;;0.40;99.90;;;;;;5073884;28;20447;-67
2020/12/03 08:35:57;;;;;;;59.73;51.10;;;0.30;99.90;;;;;;5072383;28;20929;-68
2020/12/03 08:38:28;;;;;;;60.37;53.50;;;0.40;99.90;;;;;;5074213;28;20450;-67
2020/12/03 08:40:56;;;;;;;66.37;54.83;;;0.30;99.90;;;;;;5074269;28;20478;-67
2020/12/03 08:43:23;;;;;;;61.03;51.23;;;0.30;99.90;;;;;;5073703;28;20934;-67
2020/12/03 08:45:55;;;;;;;59.67;51.67;;;0.40;99.90;;;;;;5073603;28;20888;-67
2020/12/03 08:48:25;;;;;;;63.43;54.70;;;0.40;99.90;;;;;;5071906;28;21001;-67
2020/12/03 08:50:58;;;;;;;63.27;51.97;;;0.30;99.90;;;;;;5073861;28;20473;-67
2020/12/03 08:53:26;;;;;;;65.07;57.30;;;0.30;99.90;;;;;;5071098;28;20497;-67
2020/12/03 08:55:52;;;;;;;67.93;56.23;;;0.30;99.90;;;;;;5066674;28;20451;-67
2020/12/03 08:58:22;;;;;;;67.70;54.90;;;0.40;99.90;;;;;;5054529;28;20452;-67
2020/12/03 09:00:51;;;;;;;62.83;54.40;;;0.40;99.90;;;;;;5063087;28;20864;-67
2020/12/03 09:03:20;;;;;;;60.87;52.30;;;0.40;99.90;;;;;;5064643;28;20459;-67
2020/12/03 09:05:50;;;;;;;63.93;52.90;;;0.40;99.90;;;;;;5065300;28;20455;-67
2020/12/03 09:08:20;;;;;;;61.30;52.93;;;0.50;99.90;;;;;;5070735;28;20525;-67
2020/12/03 09:10:49;;;;;;;62.67;51.17;;;0.40;99.90;;;;;;5068487;28;20512;-67
2020/12/03 09:13:18;;;;;;;56.13;49.37;;;0.50;99.90;;;;;;5067157;28;20451;-66
2020/12/03 09:15:46;;;;;;;62.47;53.40;;;0.40;99.90;;;;;;5053459;28;20959;-66
2020/12/03 09:18:13;;;;;;;66.50;54.77;;;0.50;99.90;;;;;;5068779;28;20439;-66
2020/12/03 09:20:42;;;;;;;60.80;54.10;;;0.50;99.90;;;;;;5053328;28;20456;-67
2020/12/03 09:23:14;;;;;;;64.37;57.80;;;0.50;99.90;;;;;;5053834;28;20452;-67
2020/12/03 09:25:41;;;;;;;64.03;51.30;;;0.50;99.90;;;;;;5053998;28;20455;-68
2020/12/03 09:28:07;;;;;;;59.87;51.00;;;0.50;99.90;;;;;;5058866;28;20476;-68
2020/12/03 09:30:34;;;;;;;61.73;50.83;;;0.50;99.90;;;;;;5064576;28;20946;-68
2020/12/03 09:33:03;;;;;;;61.50;51.50;;;0.60;99.90;;;;;;5063516;28;20474;-68
2020/12/03 09:35:31;;;;;;;60.40;50.63;;;0.60;99.90;;;;;;5060337;28;20482;-68
2020/12/03 09:38:01;;;;;;;61.50;54.70;;;0.60;99.90;;;;;;5052439;28;20534;-68
2020/12/03 09:40:29;;;;;;;60.37;51.10;;;0.50;99.90;;;;;;5052325;28;20533;-68
2020/12/03 09:42:56;;;;;;;63.50;55.37;;;0.60;99.90;;;;;;5052938;28;20462;-68
2020/12/03 09:45:25;;;;;;;65.07;52.07;;;0.50;99.90;;;;;;5051986;28;20466;-68
2020/12/03 09:47:52;;;;;;;62.60;53.53;;;0.60;99.90;;;;;;5052162;28;20471;-68
2020/12/03 09:50:21;;;;;;;62.73;52.83;;;0.60;99.90;;;;;;5065374;28;20604;-68
2020/12/03 09:52:50;;;;;;;58.67;49.53;;;0.60;99.90;;;;;;5053709;28;20534;-68
2020/12/03 09:55:16;;;;;;;60.57;54.13;;;0.60;99.90;;;;;;5059659;28;20458;-68
2020/12/03 09:57:52;;;;;;;62.33;55.00;;;0.50;99.90;;;;;;5057199;28;20496;-68
2020/12/03 10:00:25;;;;;;;61.63;52.40;;;0.50;99.90;;;;;;5056734;28;20479;-68
2020/12/03 10:03:36;;;;;;;57.23;48.53;;;0.60;99.90;;;;;;5057400;28;20447;-68
2020/12/03 10:06:04;;;;;;;57.43;48.73;;;0.60;99.90;;;;;;5040384;28;20538;-68
2020/12/03 10:09:18;;;;;;;60.37;53.87;;;0.70;99.90;;;;;;5062220;28;20574;-68
2020/12/03 10:12:18;;;;;;;57.77;50.60;;;0.70;99.90;;;;;;4982204;28;20975;-67
2020/12/03 10:15:08;;;;;;;55.97;49.70;;;0.70;99.90;;;;;;4975051;28;20477;-66
2020/12/03 10:17:44;;;;;;;56.77;49.10;;;0.80;99.90;;;;;;5065036;28;20446;-68
2020/12/03 10:20:12;;;;;;;56.10;49.80;;;0.80;99.90;;;;;;5087706;22;20501;-71
2020/12/03 10:22:52;;;;;;;56.03;47.67;;;0.80;99.90;;;;;;5082267;28;20519;-74
2020/12/03 10:25:20;;;;;;;56.13;50.00;;;0.90;99.90;;;;;;5077320;28;20801;-74
2020/12/03 10:27:59;;;;;;;56.20;50.20;;;0.80;99.90;;;;;;5087214;28;20485;-75
2020/12/03 10:30:34;;;;;;;54.27;48.33;;;0.80;99.90;;;;;;5093218;28;20485;-74
2020/12/03 10:33:04;;;;;;;56.20;50.10;;;0.90;99.90;;;;;;5093203;28;20434;-75
2020/12/03 10:35:31;;;;;;;53.60;47.80;;;0.90;99.90;;;;;;5093546;28;20491;-74
2020/12/03 10:37:59;;;;;;;58.87;52.57;;;;;;;;;;5093436;28;20510;-74
2020/12/03 10:40:26;;;;;;;57.03;50.67;;;0.80;99.90;;;;;;5094042;28;21072;-73
2020/12/03 10:43:03;;;;;;;53.80;47.93;;;0.90;99.90;;;;;;5092156;28;21107;-73
2020/12/03 10:45:31;;;;;;;58.33;48.87;;;;;;;;;;5093928;28;20443;-73
2020/12/03 10:48:01;;;;;;;58.60;47.13;;;0.90;99.90;;;;;;5093396;28;20487;-74
2020/12/03 10:50:58;;;;;;;54.37;48.57;;;0.90;99.90;;;;;;5094077;28;20467;-75
2020/12/03 10:53:25;;;;;;;53.43;47.60;;;0.90;99.90;;;;;;5094322;28;20481;-74
2020/12/03 10:55:59;;;;;;;54.03;48.17;;;0.90;99.90;;;;;;5093228;28;20455;-73
2020/12/03 10:58:40;;;;;;;56.53;49.40;;;1.00;99.90;;;;;;5094716;28;20533;-74
2020/12/03 11:01:08;;;;;;;54.33;48.50;;;1.00;99.90;;;;;;5097806;28;20471;-75
2020/12/03 11:03:37;;;;;;;53.67;47.87;;;1.00;99.90;;;;;;5097760;28;20515;-73
2020/12/03 11:06:06;;;;;;;53.53;46.33;;;1.00;99.90;;;;;;5097888;28;20447;-73
2020/12/03 11:08:37;;;;;;;55.07;47.47;;;1.00;99.90;;;;;;5097310;28;20553;-74
2020/12/03 11:11:04;;;;;;;53.93;46.93;;;1.00;99.90;;;;;;5095663;28;20467;-76
2020/12/03 11:13:31;;;;;;;51.80;46.30;;;1.00;99.90;;;;;;5096428;28;20526;-75
2020/12/03 11:16:01;;;;;;;53.50;47.63;;;1.00;99.90;;;;;;5097761;28;20478;-75
2020/12/03 11:18:31;;;;;;;51.60;44.73;;;1.10;99.90;;;;;;5095754;28;20534;-72
2020/12/03 11:21:00;;;;;;;51.53;45.77;;;1.20;99.90;;;;;;5094653;28;20680;-72
2020/12/03 11:23:30;;;;;;;53.90;47.37;;;1.10;99.90;;;;;;5081158;28;20451;-72
2020/12/03 11:26:04;;;;;;;46.77;41.77;;;1.10;99.90;;;;;;5081452;28;20450;-72
2020/12/03 11:28:35;;;;;;;51.00;45.60;;;1.20;99.90;;;;;;5081104;28;20489;-71
2020/12/03 11:31:03;;;;;;;48.17;42.40;;;1.10;99.90;;;;;;5077778;28;20481;-71
2020/12/03 11:33:31;;;;;;;45.50;40.77;;;1.30;99.90;;;;;;5077077;28;20991;-71
2020/12/03 11:36:07;;;;;;;46.63;41.67;;;1.30;99.90;;;;;;5077192;28;20451;-71
2020/12/03 11:38:34;;;;;;;47.70;42.50;;;1.40;99.90;;;;;;5076421;28;20446;-71
2020/12/03 11:41:04;;;;;;;45.23;40.43;;;1.30;99.90;;;;;;5076761;28;20478;-71
2020/12/03 11:49:08;;;;;;;46.43;41.53;;;1.40;99.90;;;;;;5024805;28;20839;-71
2020/12/03 11:51:36;;;;;;;47.77;41.50;;;1.40;99.90;;;;;;5076094;28;20461;-71
2020/12/03 11:54:05;;;;;;;44.90;40.07;;;1.30;99.90;;;;;;5075679;28;20465;-71
2020/12/03 11:56:32;;;;;;;49.10;44.00;;;1.40;99.90;;;;;;5075645;28;20447;-71
2020/12/03 11:59:13;;;;;;;49.50;44.47;;;1.30;99.90;;;;;;5075992;28;20446;-71
2020/12/03 12:01:40;;;;;;;47.07;41.77;;;1.20;99.90;;;;;;5096081;28;20466;-72
2020/12/03 12:04:09;;;;;;;44.67;39.97;;;1.30;99.90;;;;;;5092704;28;20447;-72
2020/12/03 12:06:41;;;;;;;46.33;41.47;;;1.30;99.90;;;;;;5088039;28;20484;-72
2020/12/03 12:09:14;;;;;;;48.67;43.70;;;1.30;99.90;;;;;;5087555;28;20475;-74
2020/12/03 12:11:44;;;;;;;48.10;43.00;;;1.30;99.90;;;;;;5077245;28;20793;-74
2020/12/03 12:14:11;;;;;;;44.87;39.73;;;1.20;99.90;;;;;;5075905;28;21088;-72
2020/12/03 12:16:37;;;;;;;45.77;41.00;;;1.30;99.90;;;;;;5081735;28;20477;-72
2020/12/03 12:19:04;;;;;;;45.20;40.50;;;1.30;99.90;;;;;;5082216;28;20446;-72
2020/12/03 12:21:32;;;;;;;46.33;40.73;;;1.30;99.90;;;;;;5083845;28;20467;-72
2020/12/03 12:23:58;;;;;;;47.60;42.47;;;1.30;99.90;;;;;;5084837;28;20444;-72
2020/12/03 12:26:27;;;;;;;45.67;40.80;;;1.30;99.90;;;;;;5082335;28;20462;-72
2020/12/03 12:28:54;;;;;;;45.50;40.50;;;1.20;99.90;;;;;;5081593;28;20490;-72
2020/12/03 12:31:20;;;;;;;45.70;40.90;;;1.30;99.90;;;;;;5082997;28;20530;-72
2020/12/03 12:33:47;;;;;;;46.63;41.60;;;1.30;99.90;;;;;;5072519;28;20466;-72
2020/12/03 12:36:13;;;;;;;44.67;40.00;;;1.30;99.90;;;;;;5083482;28;20476;-72
2020/12/03 12:38:39;;;;;;;44.57;39.70;;;1.40;99.90;;;;;;5083135;28;20483;-72
2020/12/03 12:41:06;;;;;;;42.50;38.10;;;1.40;99.90;;;;;;5084293;28;20500;-72
2020/12/03 12:43:33;;;;;;;48.07;42.90;;;1.40;99.90;;;;;;5082981;28;20514;-72
2020/12/03 12:45:59;;;;;;;45.17;40.33;;;1.30;99.90;;;;;;5081823;28;20471;-72
2020/12/03 12:48:25;;;;;;;43.33;38.67;;;1.40;99.90;;;;;;5079259;28;20493;-72
2020/12/03 12:50:52;;;;;;;44.03;39.40;;;1.40;99.90;;;;;;5080906;28;20510;-72
2020/12/03 12:53:18;;;;;;;42.37;37.93;;;1.50;99.90;;;;;;5081448;28;20538;-72
2020/12/03 12:55:44;;;;;;;41.60;37.10;;;1.50;99.90;;;;;;5080682;28;20511;-72
2020/12/03 12:58:11;;;;;;;46.57;41.63;;;1.50;99.90;;;;;;5081538;28;20469;-72
2020/12/03 13:00:38;;;;;;;45.90;41.13;;;1.50;99.90;;;;;;5081321;28;20558;-71
2020/12/03 13:03:05;;;;;;;41.53;37.13;;;1.50;99.90;;;;;;5080524;28;20864;-72
2020/12/03 13:05:31;;;;;;;45.03;40.17;;;1.50;99.90;;;;;;5080820;28;20462;-72